Time;durP1;ratioP1;P1;durP2;ratioP2;P2;SDS_P1;SDS_P2;PMS_P1;PMS_P2;Temp;Humidity;BMP_temperature;BMP_pressure;BME280_temperature;BME280_humidity;BME280_pressure;Samples;Min_cycle;Max_cycle;Signal;HPM_P1;HPM_P2
2021/09/13 00:01:20;;;;;;;35.73;27.13;;;15.60;99.90;;;;;;5053260;28;20183;-65
2021/09/13 00:03:46;;;;;;;35.30;26.67;;;15.50;99.90;;;;;;5054790;28;20217;-65
2021/09/13 00:06:11;;;;;;;43.70;27.50;;;15.60;99.90;;;;;;5073130;28;20181;-65
2021/09/13 00:08:37;;;;;;;34.17;25.83;;;15.50;99.90;;;;;;5071876;28;20758;-65
2021/09/13 00:11:03;;;;;;;33.40;25.17;;;15.40;99.90;;;;;;5052841;28;20178;-65
2021/09/13 00:13:28;;;;;;;35.57;28.33;;;15.40;99.90;;;;;;5053315;28;20182;-65
2021/09/13 00:15:54;;;;;;;30.70;25.60;;;15.40;99.90;;;;;;5072603;28;20221;-65
2021/09/13 00:18:19;;;;;;;38.23;25.37;;;15.40;99.90;;;;;;5073133;28;20216;-65
2021/09/13 00:20:45;;;;;;;36.30;27.43;;;15.30;99.90;;;;;;5054663;28;20206;-65
2021/09/13 00:23:11;;;;;;;39.53;26.70;;;15.20;99.90;;;;;;5053110;28;20197;-65
2021/09/13 00:25:36;;;;;;;37.63;25.87;;;15.10;99.90;;;;;;5054183;28;20194;-65
2021/09/13 00:28:02;;;;;;;38.20;25.93;;;15.10;99.90;;;;;;5052818;28;20610;-65
2021/09/13 00:30:28;;;;;;;37.60;25.57;;;15.10;99.90;;;;;;5066899;28;20184;-64
2021/09/13 00:32:53;;;;;;;39.83;29.57;;;15.00;99.90;;;;;;5062276;28;20220;-65
2021/09/13 00:35:19;;;;;;;40.57;30.70;;;14.90;99.90;;;;;;5052671;28;20213;-65
2021/09/13 00:37:45;;;;;;;46.13;29.33;;;14.90;99.90;;;;;;5071249;28;20221;-65
2021/09/13 00:40:11;;;;;;;48.70;31.43;;;14.80;99.90;;;;;;5072540;28;20257;-65
2021/09/13 00:42:37;;;;;;;45.90;30.00;;;14.70;99.90;;;;;;5055004;28;20179;-65
2021/09/13 00:45:03;;;;;;;45.33;28.97;;;14.70;99.90;;;;;;5052723;28;20166;-65
2021/09/13 00:47:28;;;;;;;43.20;31.03;;;14.70;99.90;;;;;;5068087;28;20248;-65
2021/09/13 00:49:54;;;;;;;50.07;32.17;;;14.70;99.90;;;;;;5072305;28;20570;-65
2021/09/13 00:52:21;;;;;;;50.10;32.17;;;14.60;99.90;;;;;;5058651;28;20179;-65
2021/09/13 00:54:47;;;;;;;49.50;32.97;;;14.60;99.90;;;;;;5052375;28;20171;-65
2021/09/13 00:57:13;;;;;;;46.67;33.23;;;14.50;99.90;;;;;;5064474;28;20217;-65
2021/09/13 00:59:39;;;;;;;54.57;33.70;;;14.50;99.90;;;;;;5072319;28;20398;-64
2021/09/13 01:02:05;;;;;;;50.80;35.20;;;14.50;99.90;;;;;;5053537;28;20561;-65
2021/09/13 01:04:30;;;;;;;51.90;37.73;;;14.40;99.90;;;;;;5051934;28;20175;-65
2021/09/13 01:06:56;;;;;;;57.03;34.27;;;14.30;99.90;;;;;;5069051;28;20181;-64
2021/09/13 01:09:23;;;;;;;54.97;33.33;;;14.20;99.90;;;;;;5071914;28;20194;-64
2021/09/13 01:11:49;;;;;;;48.40;33.23;;;14.20;99.90;;;;;;5056744;28;20277;-64
2021/09/13 01:14:19;;;;;;;60.40;36.87;;;14.20;99.90;;;;;;5051727;28;20596;-64
2021/09/13 01:16:45;;;;;;;55.07;38.23;;;14.20;99.90;;;;;;5066087;28;20185;-65
2021/09/13 01:19:11;;;;;;;61.07;33.27;;;14.10;99.90;;;;;;5072015;28;20267;-65
2021/09/13 01:21:40;;;;;;;57.07;33.17;;;14.10;99.90;;;;;;5059242;28;20178;-65
2021/09/13 01:24:07;;;;;;;63.80;36.23;;;14.10;99.90;;;;;;5051853;28;20537;-65
2021/09/13 01:26:32;;;;;;;53.63;34.13;;;14.00;99.90;;;;;;5063002;28;20186;-65
2021/09/13 01:28:58;;;;;;;60.73;46.30;;;14.00;99.90;;;;;;5064017;28;20229;-65
2021/09/13 01:31:24;;;;;;;56.77;35.13;;;14.10;99.90;;;;;;5051490;28;20266;-65
2021/09/13 01:33:50;;;;;;;69.80;39.50;;;14.10;99.90;;;;;;5057482;28;20200;-65
2021/09/13 01:36:15;;;;;;;61.47;37.00;;;14.00;99.90;;;;;;5071867;28;20175;-65
2021/09/13 01:38:41;;;;;;;61.33;35.17;;;14.00;99.90;;;;;;5065900;28;20267;-65
2021/09/13 01:41:07;;;;;;;53.57;32.07;;;14.00;99.90;;;;;;5051250;28;20262;-65
2021/09/13 01:43:33;;;;;;;57.10;33.33;;;14.00;99.90;;;;;;5054070;28;20260;-65
2021/09/13 01:45:58;;;;;;;60.47;33.33;;;14.00;99.90;;;;;;5071584;28;20177;-65
2021/09/13 01:48:24;;;;;;;53.70;33.13;;;14.00;99.90;;;;;;5070760;28;20229;-65
2021/09/13 01:50:49;;;;;;;54.53;32.77;;;13.90;99.90;;;;;;5070320;28;20639;-65
2021/09/13 01:53:15;;;;;;;60.70;33.90;;;13.80;99.90;;;;;;5062429;28;20193;-65
2021/09/13 01:55:41;;;;;;;59.77;31.13;;;13.90;99.90;;;;;;5051590;28;20233;-65
2021/09/13 01:58:06;;;;;;;61.83;34.33;;;13.80;99.90;;;;;;5066477;28;20213;-65
2021/09/13 02:00:32;;;;;;;73.50;35.13;;;13.80;99.90;;;;;;5071233;28;20174;-65
2021/09/13 02:02:58;;;;;;;63.73;37.23;;;13.80;99.90;;;;;;5057637;28;20194;-65
2021/09/13 02:05:23;;;;;;;56.77;33.00;;;13.80;99.90;;;;;;5051530;28;20174;-65
2021/09/13 02:07:49;;;;;;;59.47;32.83;;;13.80;99.90;;;;;;5060698;28;20550;-65
2021/09/13 02:10:15;;;;;;;59.43;35.43;;;13.80;99.90;;;;;;5049294;28;20179;-65
2021/09/13 02:12:40;;;;;;;65.13;32.57;;;13.80;99.90;;;;;;5061792;28;20228;-65
2021/09/13 02:15:07;;;;;;;58.13;33.67;;;13.70;99.90;;;;;;5071542;28;20192;-65
2021/09/13 02:17:32;;;;;;;55.57;31.97;;;13.70;99.90;;;;;;5062588;28;20203;-65
2021/09/13 02:19:58;;;;;;;59.67;32.93;;;13.70;99.90;;;;;;5050177;28;20181;-65
2021/09/13 02:22:24;;;;;;;53.07;30.30;;;13.70;99.90;;;;;;5057919;28;20185;-65
2021/09/13 02:24:49;;;;;;;56.40;32.43;;;13.70;99.90;;;;;;5067896;28;20667;-65
2021/09/13 02:27:15;;;;;;;67.33;32.67;;;13.70;99.90;;;;;;5053928;28;20197;-65
2021/09/13 02:29:40;;;;;;;53.30;32.27;;;13.70;99.90;;;;;;5055320;28;20175;-68
2021/09/13 02:32:07;;;;;;;59.60;33.73;;;13.80;99.90;;;;;;5076296;28;20166;-70
2021/09/13 02:34:32;;;;;;;58.43;34.47;;;13.80;99.90;;;;;;5070864;28;20206;-73
2021/09/13 02:36:58;;;;;;;62.87;41.90;;;13.80;99.90;;;;;;5056335;28;20175;-69
2021/09/13 02:39:23;;;;;;;58.60;30.63;;;13.80;99.90;;;;;;5059038;28;20635;-69
2021/09/13 02:41:49;;;;;;;55.93;30.57;;;13.80;99.90;;;;;;5075191;28;20177;-68
2021/09/13 02:44:15;;;;;;;62.37;34.87;;;13.80;99.90;;;;;;5074303;28;20189;-70
2021/09/13 02:46:40;;;;;;;60.33;33.07;;;13.70;99.90;;;;;;5056377;28;20175;-69
2021/09/13 02:49:06;;;;;;;58.40;32.50;;;13.80;99.90;;;;;;5055852;28;20221;-69
2021/09/13 02:51:31;;;;;;;57.87;31.17;;;13.80;99.90;;;;;;5075262;28;20647;-67
2021/09/13 02:53:57;;;;;;;55.87;31.70;;;13.80;99.90;;;;;;5065050;28;20179;-67
2021/09/13 02:56:23;;;;;;;62.27;32.93;;;13.80;99.90;;;;;;5055835;28;20193;-71
2021/09/13 02:58:48;;;;;;;60.37;33.17;;;13.70;99.90;;;;;;5062736;28;20202;-69
2021/09/13 03:01:14;;;;;;;55.90;33.00;;;13.70;99.90;;;;;;5075782;28;20166;-69
2021/09/13 03:03:41;;;;;;;67.23;33.37;;;13.70;99.90;;;;;;5068325;28;20174;-69
2021/09/13 03:06:08;;;;;;;54.40;34.60;;;13.80;99.90;;;;;;5055629;28;20632;-66
2021/09/13 03:08:34;;;;;;;60.40;34.50;;;13.80;99.90;;;;;;5061296;28;20667;-69
2021/09/13 03:10:59;;;;;;;58.83;33.47;;;13.80;99.90;;;;;;5075312;28;20181;-68
2021/09/13 03:13:25;;;;;;;65.47;35.27;;;13.90;99.90;;;;;;5071434;28;20174;-67
2021/09/13 03:15:51;;;;;;;63.57;41.73;;;13.90;99.90;;;;;;5055499;28;20201;-68
2021/09/13 03:18:16;;;;;;;61.27;43.00;;;13.90;99.90;;;;;;5057521;28;20569;-67
2021/09/13 03:20:42;;;;;;;58.70;36.57;;;13.90;99.90;;;;;;5074777;28;20175;-66
2021/09/13 03:23:07;;;;;;;63.37;33.60;;;13.90;99.90;;;;;;5055305;28;20640;-69
2021/09/13 03:25:33;;;;;;;61.47;43.20;;;13.80;99.90;;;;;;5054018;28;20267;-70
2021/09/13 03:27:59;;;;;;;68.67;40.17;;;13.80;99.90;;;;;;5071793;28;20289;-66
2021/09/13 03:30:25;;;;;;;65.40;34.30;;;13.80;99.90;;;;;;5073256;28;20170;-67
2021/09/13 03:32:50;;;;;;;66.77;34.47;;;13.70;99.90;;;;;;5059553;28;20175;-68
2021/09/13 03:35:16;;;;;;;70.67;36.00;;;13.70;99.90;;;;;;5055027;28;20706;-68
2021/09/13 03:37:42;;;;;;;69.20;33.83;;;13.60;99.90;;;;;;5055491;28;20485;-69
2021/09/13 03:40:08;;;;;;;64.10;34.73;;;13.50;99.90;;;;;;5054569;28;20224;-70
2021/09/13 03:42:34;;;;;;;77.03;36.10;;;13.50;99.90;;;;;;5066415;28;20672;-69
2021/09/13 03:44:59;;;;;;;64.83;33.10;;;13.40;99.90;;;;;;5074707;28;20174;-70
2021/09/13 03:47:25;;;;;;;70.10;34.70;;;13.40;99.90;;;;;;5063593;28;20174;-69
2021/09/13 03:49:51;;;;;;;61.73;34.57;;;13.30;99.90;;;;;;5053587;28;20179;-64
2021/09/13 03:52:16;;;;;;;74.43;35.77;;;13.30;99.90;;;;;;5053810;28;20675;-64
2021/09/13 03:54:42;;;;;;;64.70;34.67;;;13.20;99.90;;;;;;5057893;28;20661;-64
2021/09/13 03:57:08;;;;;;;78.93;36.00;;;13.20;99.90;;;;;;5073824;28;20501;-64
2021/09/13 03:59:33;;;;;;;74.90;35.73;;;13.20;99.90;;;;;;5070416;28;20202;-64
2021/09/13 04:01:59;;;;;;;65.97;35.80;;;13.20;99.90;;;;;;5052440;28;20269;-64
2021/09/13 04:04:28;;;;;;;79.77;35.33;;;13.10;99.90;;;;;;5054572;28;20175;-64
2021/09/13 04:07:14;;;;;;;82.73;39.17;;;13.10;99.90;;;;;;5073344;28;21193;-64
2021/09/13 04:09:47;;;;;;;80.77;36.97;;;13.00;99.90;;;;;;5070572;28;20233;-64
2021/09/13 04:12:13;;;;;;;78.97;37.03;;;12.90;99.90;;;;;;5053399;28;20182;-64
2021/09/13 04:14:38;;;;;;;86.70;37.97;;;13.00;99.90;;;;;;5053642;28;20542;-64
2021/09/13 04:17:04;;;;;;;83.67;37.87;;;12.90;99.90;;;;;;5073218;28;20596;-64
2021/09/13 04:19:29;;;;;;;80.83;36.97;;;12.90;99.90;;;;;;5054611;28;20256;-64
2021/09/13 04:21:55;;;;;;;80.40;43.73;;;12.90;99.90;;;;;;5053012;28;20163;-64
2021/09/13 04:24:21;;;;;;;86.20;42.57;;;12.80;99.90;;;;;;5069411;28;20174;-64
2021/09/13 04:26:47;;;;;;;85.13;37.60;;;12.90;99.90;;;;;;5072991;28;20682;-64
2021/09/13 04:29:14;;;;;;;79.73;36.67;;;12.90;99.90;;;;;;5058199;28;20195;-64
2021/09/13 04:31:39;;;;;;;84.97;39.13;;;12.80;99.90;;;;;;5052942;28;20228;-64
2021/09/13 04:34:05;;;;;;;75.50;36.17;;;12.90;99.90;;;;;;5055769;28;20265;-64
2021/09/13 04:36:30;;;;;;;86.47;36.60;;;12.90;99.90;;;;;;5053318;28;20175;-64
2021/09/13 04:38:56;;;;;;;78.03;37.73;;;12.90;99.90;;;;;;5067108;28;20213;-64
2021/09/13 04:41:22;;;;;;;85.73;36.13;;;12.80;99.90;;;;;;5072653;28;20185;-64
2021/09/13 04:43:48;;;;;;;72.27;35.80;;;12.90;99.90;;;;;;5059658;28;20183;-64
2021/09/13 04:46:14;;;;;;;72.43;35.07;;;13.00;99.90;;;;;;5058499;28;20250;-64
2021/09/13 04:48:40;;;;;;;68.33;34.03;;;13.00;99.90;;;;;;5071870;28;20198;-64
2021/09/13 04:51:05;;;;;;;73.17;36.37;;;13.00;99.90;;;;;;5067991;28;20644;-64
2021/09/13 04:53:31;;;;;;;69.77;33.80;;;12.90;99.90;;;;;;5052647;28;20636;-64
2021/09/13 04:55:57;;;;;;;72.77;34.43;;;13.00;99.90;;;;;;5054505;28;20233;-64
2021/09/13 04:58:22;;;;;;;80.30;36.03;;;12.90;99.90;;;;;;5063748;22;20219;-64
2021/09/13 05:00:48;;;;;;;83.07;36.80;;;12.80;99.90;;;;;;5032115;28;20180;-64
2021/09/13 05:03:13;;;;;;;74.83;34.10;;;12.80;99.90;;;;;;5052577;28;20600;-64
2021/09/13 05:05:39;;;;;;;82.00;34.83;;;12.80;99.90;;;;;;5052441;28;20251;-64
2021/09/13 05:08:06;;;;;;;68.23;33.50;;;12.80;99.90;;;;;;5033603;28;20620;-62
2021/09/13 05:10:31;;;;;;;72.37;35.67;;;12.80;99.90;;;;;;5032170;28;20206;-65
2021/09/13 05:12:57;;;;;;;77.83;36.07;;;12.70;99.90;;;;;;5048879;28;20664;-65
2021/09/13 05:15:23;;;;;;;73.07;34.23;;;12.80;99.90;;;;;;5038603;28;20187;-64
2021/09/13 05:17:48;;;;;;;80.57;37.60;;;12.80;99.90;;;;;;5032089;28;20192;-65
2021/09/13 05:20:15;;;;;;;68.90;34.27;;;12.80;99.90;;;;;;5043599;28;20537;-64
2021/09/13 05:22:40;;;;;;;81.53;33.60;;;12.80;99.90;;;;;;5052129;28;20537;-64
2021/09/13 05:25:06;;;;;;;79.03;33.93;;;12.80;99.90;;;;;;5041971;28;20190;-63
2021/09/13 05:27:32;;;;;;;68.50;35.00;;;12.90;99.90;;;;;;5032080;28;20172;-63
2021/09/13 05:29:58;;;;;;;66.73;33.87;;;12.90;99.90;;;;;;5039423;28;20175;-65
2021/09/13 05:32:23;;;;;;;70.67;34.87;;;12.90;99.90;;;;;;5052350;28;20167;-64
2021/09/13 05:34:49;;;;;;;66.70;34.60;;;13.00;99.90;;;;;;5045822;28;20317;-64
2021/09/13 05:37:15;;;;;;;73.10;34.17;;;13.10;99.90;;;;;;5032114;28;20174;-65
2021/09/13 05:39:41;;;;;;;62.00;31.43;;;13.10;99.90;;;;;;5032661;28;20211;-64
2021/09/13 05:42:06;;;;;;;62.20;32.87;;;13.10;99.90;;;;;;5040697;28;20179;-65
2021/09/13 05:44:32;;;;;;;68.80;34.60;;;13.10;99.90;;;;;;5049209;28;20233;-64
2021/09/13 05:46:58;;;;;;;81.97;38.17;;;13.10;99.90;;;;;;5031716;28;20388;-65
2021/09/13 05:49:24;;;;;;;64.77;31.73;;;13.20;99.90;;;;;;5031790;28;20188;-65
2021/09/13 05:51:52;;;;;;;65.67;31.90;;;13.20;99.90;;;;;;5032339;28;20183;-65
2021/09/13 05:54:25;;;;;;;67.07;32.40;;;13.20;99.90;;;;;;5031841;28;20609;-64
2021/09/13 05:56:53;;;;;;;62.40;31.93;;;13.30;99.90;;;;;;5051337;28;20269;-65
2021/09/13 05:59:20;;;;;;;95.07;39.20;;;13.40;99.90;;;;;;5051295;28;20334;-64
2021/09/13 06:01:46;;;;;;;82.53;36.00;;;13.50;99.90;;;;;;5035539;28;20576;-64
2021/09/13 06:04:12;;;;;;;75.10;34.80;;;13.60;99.90;;;;;;5031846;28;20167;-64
2021/09/13 06:06:38;;;;;;;82.30;36.47;;;13.80;99.90;;;;;;5046641;28;20240;-65
2021/09/13 06:09:04;;;;;;;78.03;34.03;;;13.90;99.90;;;;;;5034647;28;20233;-64
2021/09/13 06:11:29;;;;;;;72.23;35.57;;;14.10;99.90;;;;;;5031101;28;20664;-65
2021/09/13 06:13:55;;;;;;;76.10;37.87;;;14.30;99.90;;;;;;5031187;28;20172;-65
2021/09/13 06:16:21;;;;;;;73.43;35.40;;;14.40;99.90;;;;;;5031595;28;20266;-64
2021/09/13 06:18:47;;;;;;;56.57;30.27;;;14.50;99.90;;;;;;5030968;28;20211;-64
2021/09/13 06:21:13;;;;;;;59.33;37.80;;;14.60;99.90;;;;;;5042210;28;20239;-64
2021/09/13 06:23:38;;;;;;;53.30;27.80;;;14.60;99.90;;;;;;5051444;28;20186;-63
2021/09/13 06:26:04;;;;;;;31.90;24.43;;;14.70;99.90;;;;;;5041178;28;20316;-63
2021/09/13 06:28:29;;;;;;;49.07;25.73;;;14.70;99.90;;;;;;5031191;28;20210;-65
2021/09/13 06:30:55;;;;;;;29.93;23.60;;;14.60;99.90;;;;;;5035046;28;20193;-64
2021/09/13 06:33:21;;;;;;;34.50;25.60;;;14.50;99.90;;;;;;5038044;28;20197;-64
2021/09/13 06:35:46;;;;;;;35.43;25.57;;;14.50;99.90;;;;;;5051116;28;20257;-63
2021/09/13 06:38:12;;;;;;;30.73;25.20;;;14.50;99.90;;;;;;5045492;28;20207;-65
2021/09/13 06:40:38;;;;;;;28.90;23.40;;;14.50;99.90;;;;;;5029701;28;20601;-63
2021/09/13 06:43:03;;;;;;;30.07;24.17;;;14.60;99.90;;;;;;5033958;28;20392;-65
2021/09/13 06:45:39;;;;;;;27.00;21.27;;;14.70;99.90;;;;;;5051123;28;20179;-64
2021/09/13 06:48:05;;;;;;;23.93;20.33;;;14.80;99.90;;;;;;5048104;28;20200;-65
2021/09/13 06:50:30;;;;;;;21.77;19.53;;;14.90;99.90;;;;;;5031070;28;20251;-65
2021/09/13 06:52:57;;;;;;;20.90;18.77;;;15.00;99.90;;;;;;5031564;28;20233;-65
2021/09/13 06:55:23;;;;;;;20.57;18.47;;;15.20;99.90;;;;;;5051081;28;20686;-65
2021/09/13 06:57:49;;;;;;;18.77;16.97;;;15.40;99.90;;;;;;5049051;28;20228;-65
2021/09/13 07:00:16;;;;;;;19.50;17.50;;;15.70;99.90;;;;;;5050646;28;20198;-64
2021/09/13 07:02:44;;;;;;;30.97;17.87;;;15.80;99.90;;;;;;5050522;28;20635;-65
2021/09/13 07:05:10;;;;;;;18.07;16.27;;;16.10;99.90;;;;;;5011048;28;20188;-64
2021/09/13 07:07:37;;;;;;;17.53;15.63;;;16.40;99.90;;;;;;5014453;28;20581;-64
2021/09/13 07:10:08;;;;;;;17.40;15.57;;;16.60;99.90;;;;;;5048959;28;20186;-64
2021/09/13 07:12:35;;;;;;;19.47;17.40;;;16.90;99.90;;;;;;5016885;28;20524;-65
2021/09/13 07:15:01;;;;;;;19.20;16.90;;;17.10;99.90;;;;;;5036193;28;20181;-64
2021/09/13 07:17:26;;;;;;;19.47;16.17;;;17.20;99.90;;;;;;5034597;28;20234;-64
2021/09/13 07:19:52;;;;;;;16.90;15.17;;;17.30;99.90;;;;;;5053741;28;20210;-64
2021/09/13 07:22:19;;;;;;;18.17;16.30;;;17.40;99.90;;;;;;5054364;28;20178;-64
2021/09/13 07:24:44;;;;;;;19.70;17.70;;;17.50;99.90;;;;;;5035292;28;20664;-64
2021/09/13 07:27:11;;;;;;;18.30;16.37;;;17.40;99.90;;;;;;5045035;28;20178;-64
2021/09/13 07:29:37;;;;;;;22.10;18.50;;;17.40;99.90;;;;;;5052660;28;20232;-64
2021/09/13 07:32:03;;;;;;;20.90;18.80;;;17.50;99.90;;;;;;5044124;28;20190;-64
2021/09/13 07:34:30;;;;;;;21.17;17.53;;;17.50;99.90;;;;;;5034193;28;20187;-64
2021/09/13 07:36:56;;;;;;;19.23;17.23;;;17.70;99.90;;;;;;5041731;28;20628;-64
2021/09/13 07:39:23;;;;;;;19.43;15.83;;;17.90;99.90;;;;;;5053619;28;20331;-65
2021/09/13 07:41:49;;;;;;;16.40;14.80;;;18.00;99.90;;;;;;5052154;28;20533;-65
2021/09/13 07:44:14;;;;;;;15.77;14.17;;;18.20;99.90;;;;;;5038990;28;20187;-65
2021/09/13 07:46:40;;;;;;;14.03;12.63;;;18.70;99.90;;;;;;5033723;28;20237;-65
2021/09/13 07:49:06;;;;;;;13.43;12.13;;;18.90;99.90;;;;;;5032546;28;20672;-65
2021/09/13 07:51:32;;;;;;;14.70;12.40;;;19.50;99.90;;;;;;5033674;28;20209;-65
2021/09/13 07:53:58;;;;;;;12.50;11.30;;;19.80;99.90;;;;;;5033573;28;20214;-64
2021/09/13 07:56:23;;;;;;;13.00;11.80;;;20.10;99.90;;;;;;5052955;28;20174;-64
2021/09/13 07:58:49;;;;;;;13.60;12.30;;;20.10;99.90;;;;;;5053139;28;20317;-65
2021/09/13 08:01:14;;;;;;;14.33;12.97;;;20.40;99.90;;;;;;5035438;28;20188;-64
2021/09/13 08:03:40;;;;;;;14.83;13.20;;;20.10;99.90;;;;;;5033688;28;20168;-64
2021/09/13 08:06:06;;;;;;;14.73;12.77;;;20.20;99.90;;;;;;5047425;28;20667;-65
2021/09/13 08:08:32;;;;;;;14.18;12.00;;;20.50;99.90;;;;;;5052607;28;20285;-64
2021/09/13 08:10:58;;;;;;;13.75;12.35;;;20.60;99.90;;;;;;5038731;28;20278;-64
2021/09/13 08:13:24;;;;;;;14.90;11.50;;;20.90;99.90;;;;;;5033403;28;20258;-64
2021/09/13 08:15:49;;;;;;;14.60;13.18;;;21.00;99.90;;;;;;5033029;28;20183;-64
2021/09/13 08:18:15;;;;;;;15.40;10.93;;;21.00;99.90;;;;;;5033156;28;20234;-64
2021/09/13 08:20:41;;;;;;;12.38;9.98;;;21.30;99.90;;;;;;5032849;28;20191;-64
2021/09/13 08:23:07;;;;;;;11.32;10.23;;;21.50;99.90;;;;;;5032582;28;20510;-64
2021/09/13 08:25:32;;;;;;;11.10;10.02;;;22.00;99.90;;;;;;5040605;28;20179;-64
2021/09/13 08:27:58;;;;;;;12.15;10.90;;;22.40;99.90;;;;;;5052702;28;20236;-65
2021/09/13 08:30:23;;;;;;;11.82;10.50;;;22.40;99.90;;;;;;5046230;28;20668;-64
2021/09/13 08:32:49;;;;;;;11.75;10.57;;;22.80;99.90;;;;;;5033934;28;20230;-65
2021/09/13 08:35:15;;;;;;;11.07;9.98;;;23.10;99.90;;;;;;5051691;28;20189;-64
2021/09/13 08:37:40;;;;;;;16.00;11.43;;;23.60;99.90;;;;;;5051638;28;20179;-64
2021/09/13 08:40:06;;;;;;;12.38;10.73;;;23.90;99.90;;;;;;5032571;28;20264;-65
2021/09/13 08:42:35;;;;;;;12.45;11.15;;;23.80;99.90;;;;;;5032944;28;20172;-64
2021/09/13 08:45:01;;;;;;;12.30;11.13;;;23.70;99.90;;;;;;5051497;28;20187;-64
2021/09/13 08:47:36;;;;;;;12.63;11.13;;;23.50;99.90;;;;;;5052713;28;20174;-64
2021/09/13 08:50:39;;;;;;;12.23;11.00;;;23.60;99.90;;;;;;5033304;28;20492;-65
2021/09/13 08:52:53;;;;;;;14.20;11.52;;;23.70;99.90;;;;;;5032415;28;20267;-64
2021/09/13 08:55:21;;;;;;;13.02;11.63;;;23.90;99.90;;;;;;5052806;28;20692;-64
2021/09/13 08:57:46;;;;;;;14.18;11.57;;;24.40;99.90;;;;;;5052337;28;20182;-65
2021/09/13 09:00:15;;;;;;;14.07;11.88;;;24.50;99.90;;;;;;5033059;28;20262;-66
2021/09/13 09:02:42;;;;;;;14.73;12.93;;;24.70;99.90;;;;;;5032612;28;20185;-65
2021/09/13 09:05:09;;;;;;;15.43;13.05;;;24.70;99.90;;;;;;5049701;28;20187;-65
2021/09/13 09:08:08;;;;;;;15.15;13.73;;;24.80;99.90;;;;;;5052334;28;20167;-65
2021/09/13 09:10:34;;;;;;;16.77;14.25;;;25.00;99.90;;;;;;4980048;28;20559;-65
2021/09/13 09:13:13;;;;;;;15.85;14.23;;;24.80;99.90;;;;;;5012351;28;20182;-65
2021/09/13 09:16:09;;;;;;;16.55;14.77;;;24.90;99.90;;;;;;5052224;28;20259;-66
2021/09/13 09:18:40;;;;;;;16.88;15.18;;;25.10;99.90;;;;;;5000072;28;20226;-66
2021/09/13 09:21:08;;;;;;;20.42;15.82;;;25.10;99.90;;;;;;5012532;28;20176;-65
2021/09/13 09:23:59;;;;;;;17.88;14.65;;;25.20;99.90;;;;;;5052176;28;20167;-66
2021/09/13 09:26:26;;;;;;;16.80;14.35;;;25.20;99.90;;;;;;5049569;28;20171;-65
2021/09/13 09:28:52;;;;;;;16.52;13.38;;;25.40;99.90;;;;;;5034178;28;20201;-65
2021/09/13 09:31:39;;;;;;;16.10;14.60;;;25.60;99.90;;;;;;5051009;28;20178;-66
2021/09/13 09:34:19;;;;;;;16.42;14.80;;;25.80;99.90;;;;;;5012127;28;20175;-64
2021/09/13 09:37:14;;;;;;;17.05;15.35;;;26.30;99.90;;;;;;5019631;28;20183;-66
2021/09/13 09:39:48;;;;;;;18.02;16.10;;;26.10;99.90;;;;;;5038586;28;20309;-65
2021/09/13 09:42:25;;;;;;;22.65;17.25;;;25.80;99.90;;;;;;5044307;28;20183;-65
2021/09/13 09:44:51;;;;;;;18.50;16.55;;;25.90;99.90;;;;;;5031671;28;20187;-66
2021/09/13 09:47:21;;;;;;;24.20;17.65;;;25.90;99.90;;;;;;5038537;28;20292;-65
2021/09/13 09:49:51;;;;;;;22.95;17.95;;;25.90;99.90;;;;;;5051187;28;20198;-65
2021/09/13 09:52:34;;;;;;;18.50;16.38;;;26.00;99.90;;;;;;5045095;28;20179;-66
2021/09/13 09:55:19;;;;;;;18.95;15.85;;;26.10;99.90;;;;;;5031248;28;20176;-65
2021/09/13 09:58:05;;;;;;;24.65;16.23;;;25.70;99.90;;;;;;5040928;28;20235;-65
2021/09/13 10:00:32;;;;;;;19.27;16.75;;;25.90;99.90;;;;;;5051227;28;20534;-65
2021/09/13 10:02:57;;;;;;;121.28;24.17;;;26.10;99.90;;;;;;5040085;28;20186;-64
2021/09/13 10:05:26;;;;;;;28.83;17.65;;;26.10;99.90;;;;;;5032754;28;20175;-65
2021/09/13 10:07:52;;;;;;;20.60;18.30;;;26.30;99.90;;;;;;5051211;28;20194;-65
2021/09/13 10:10:19;;;;;;;20.42;17.75;;;26.40;99.90;;;;;;5049098;28;20257;-65
2021/09/13 10:12:45;;;;;;;22.90;18.77;;;26.70;99.90;;;;;;5031445;28;20175;-65
2021/09/13 10:15:12;;;;;;;20.58;18.38;;;26.90;99.90;;;;;;5034680;28;20186;-65
2021/09/13 10:17:38;;;;;;;22.40;18.45;;;26.90;99.90;;;;;;5051291;28;20179;-65
2021/09/13 10:20:06;;;;;;;23.20;19.13;;;26.80;99.90;;;;;;5048477;28;20267;-65
2021/09/13 10:22:41;;;;;;;20.55;18.52;;;26.70;99.90;;;;;;5031353;28;20222;-65
2021/09/13 10:25:08;;;;;;;26.50;22.20;;;26.80;99.90;;;;;;5032833;28;20607;-66
2021/09/13 10:27:41;;;;;;;25.55;22.60;;;26.70;99.90;;;;;;5051184;28;20524;-65
2021/09/13 10:30:19;;;;;;;27.33;21.35;;;26.40;99.90;;;;;;5049414;28;20171;-65
2021/09/13 10:32:47;;;;;;;24.10;21.38;;;26.40;99.90;;;;;;5030315;28;20229;-65
2021/09/13 10:35:15;;;;;;;23.95;21.38;;;26.40;99.90;;;;;;5051016;28;20171;-65
2021/09/13 10:37:52;;;;;;;23.58;21.08;;;26.50;99.90;;;;;;5051154;28;20171;-65
2021/09/13 10:40:25;;;;;;;26.08;20.50;;;26.50;99.90;;;;;;5032348;28;20252;-65
2021/09/13 10:42:59;;;;;;;23.35;20.85;;;26.30;99.90;;;;;;5036924;28;20760;-65
2021/09/13 10:45:38;;;;;;;24.02;21.38;;;26.10;99.90;;;;;;5031289;28;20585;-65
2021/09/13 10:48:09;;;;;;;27.58;20.75;;;25.90;99.90;;;;;;5048285;28;20202;-65
2021/09/13 10:50:40;;;;;;;25.80;21.63;;;26.00;99.90;;;;;;5054704;28;20181;-66
2021/09/13 10:53:27;;;;;;;23.30;20.38;;;26.30;99.90;;;;;;5052956;28;20171;-65
2021/09/13 10:55:59;;;;;;;25.92;21.05;;;26.80;99.90;;;;;;5044689;28;20182;-65
2021/09/13 10:58:44;;;;;;;23.60;21.10;;;26.70;99.90;;;;;;5082782;22;20221;-67
2021/09/13 11:01:30;;;;;;;28.73;22.55;;;26.60;99.90;;;;;;5054296;28;20181;-67
2021/09/13 11:04:06;;;;;;;25.48;21.90;;;26.40;99.90;;;;;;5054121;28;20206;-66
2021/09/13 11:06:36;;;;;;;26.23;21.15;;;26.60;99.90;;;;;;5053604;28;20175;-67
2021/09/13 11:09:08;;;;;;;25.98;21.88;;;27.30;99.90;;;;;;5034355;28;20183;-67
2021/09/13 11:11:41;;;;;;;23.52;19.55;;;27.30;99.90;;;;;;5038526;28;20175;-67
2021/09/13 11:14:11;;;;;;;20.00;17.13;;;27.10;99.90;;;;;;5054634;28;20179;-67
2021/09/13 11:16:44;;;;;;;22.38;20.05;;;27.00;99.90;;;;;;5052822;28;20221;-66
2021/09/13 11:19:12;;;;;;;25.60;21.80;;;26.80;99.90;;;;;;5054070;28;20297;-67
2021/09/13 11:21:49;;;;;;;22.85;20.42;;;26.40;99.90;;;;;;5049974;28;20168;-67
2021/09/13 11:24:23;;;;;;;20.55;18.45;;;27.00;99.90;;;;;;5034550;28;20591;-67
2021/09/13 11:26:58;;;;;;;21.55;19.20;;;27.00;99.90;;;;;;5035597;28;20181;-66
2021/09/13 11:29:26;;;;;;;18.63;16.38;;;27.10;99.90;;;;;;5033993;28;20194;-67
2021/09/13 11:31:55;;;;;;;17.98;16.02;;;27.60;99.90;;;;;;5038800;28;20175;-68
2021/09/13 11:34:37;;;;;;;16.23;14.40;;;27.70;99.90;;;;;;5054190;28;20185;-66
2021/09/13 11:37:20;;;;;;;18.63;16.83;;;27.20;99.90;;;;;;5047914;28;20266;-66
2021/09/13 11:39:53;;;;;;;16.65;14.65;;;27.30;99.90;;;;;;5033682;28;20207;-66
2021/09/13 11:42:25;;;;;;;16.63;12.98;;;28.10;99.90;;;;;;5041168;28;20175;-67
2021/09/13 11:44:52;;;;;;;16.10;14.43;;;28.70;99.90;;;;;;5053943;28;20186;-67
2021/09/13 11:47:20;;;;;;;18.17;13.35;;;28.70;99.90;;;;;;5052115;28;20179;-66
2021/09/13 11:49:48;;;;;;;14.02;12.73;;;28.90;99.90;;;;;;5053331;28;20198;-66
2021/09/13 11:52:27;;;;;;;15.27;13.43;;;28.80;99.90;;;;;;5048027;28;20207;-66
2021/09/13 11:55:04;;;;;;;14.75;13.35;;;28.80;99.90;;;;;;5033916;28;20520;-68
2021/09/13 11:57:41;;;;;;;16.42;14.82;;;28.50;99.90;;;;;;5040764;28;20175;-66
2021/09/13 12:00:08;;;;;;;13.15;11.93;;;28.20;99.90;;;;;;5053082;28;20765;-67
2021/09/13 12:02:35;;;;;;;13.60;12.40;;;28.00;99.90;;;;;;5046133;28;20661;-67
2021/09/13 12:05:28;;;;;;;15.05;13.25;;;28.10;99.90;;;;;;5032147;28;20183;-67
2021/09/13 12:07:56;;;;;;;14.77;13.27;;;28.20;99.90;;;;;;5042748;28;20174;-67
2021/09/13 12:10:29;;;;;;;16.27;12.60;;;28.00;99.90;;;;;;5053061;28;20232;-67
2021/09/13 12:12:59;;;;;;;13.77;12.38;;;28.40;99.90;;;;;;5044123;28;20190;-67
2021/09/13 12:15:27;;;;;;;15.35;13.75;;;28.70;99.90;;;;;;5033308;28;20175;-68
2021/09/13 12:17:54;;;;;;;19.65;17.70;;;28.70;99.90;;;;;;5041067;28;20175;-67
2021/09/13 12:20:34;;;;;;;21.13;19.02;;;28.80;99.90;;;;;;5052967;28;20171;-67
2021/09/13 12:23:03;;;;;;;23.98;20.08;;;28.70;99.90;;;;;;5044153;28;20167;-65
2021/09/13 12:25:37;;;;;;;21.30;19.10;;;28.80;99.90;;;;;;5033129;28;20253;-66
2021/09/13 12:28:03;;;;;;;21.92;19.65;;;29.00;99.90;;;;;;5041367;28;20174;-68
2021/09/13 12:30:35;;;;;;;22.77;18.85;;;28.40;99.90;;;;;;5047995;28;20201;-68
2021/09/13 12:33:03;;;;;;;20.30;18.30;;;28.20;99.90;;;;;;5033767;28;20563;-66